Time;durP1;ratioP1;P1;durP2;ratioP2;P2;SDS_P1;SDS_P2;PMS_P1;PMS_P2;Temp;Humidity;BMP_temperature;BMP_pressure;BME280_temperature;BME280_humidity;BME280_pressure;Samples;Min_cycle;Max_cycle;Signal;HPM_P1;HPM_P2
2022/02/22 00:00:51;;;;;;;13.43;8.50;;;;;;;6.31;59.58;97305.63;5023823;28;20048;-75
2022/02/22 00:03:17;;;;;;;11.13;8.57;;;;;;;6.37;59.49;97273.22;5039974;28;20039;-75
2022/02/22 00:05:43;;;;;;;11.10;7.83;;;;;;;6.56;59.38;97298.13;5023315;28;20071;-74
2022/02/22 00:08:09;;;;;;;10.70;7.63;;;;;;;6.61;59.46;97312.38;5023517;28;20575;-74
2022/02/22 00:10:35;;;;;;;11.77;8.30;;;;;;;6.43;59.51;97274.28;5023404;28;20051;-74
2022/02/22 00:13:01;;;;;;;13.70;9.20;;;;;;;6.64;59.48;97313.84;5039360;28;20129;-73
2022/02/22 00:15:28;;;;;;;13.63;9.30;;;;;;;6.62;59.63;97294.72;5022866;28;20438;-73
2022/02/22 00:17:54;;;;;;;12.00;9.27;;;;;;;6.50;59.63;97281.22;5023647;28;20071;-74
2022/02/22 00:20:20;;;;;;;12.13;8.97;;;;;;;6.36;59.92;97266.34;5039019;28;20134;-75
2022/02/22 00:22:46;;;;;;;14.47;9.50;;;;;;;6.37;59.63;97238.97;5072904;28;20048;-75
2022/02/22 00:25:13;;;;;;;12.87;9.37;;;;;;;6.46;59.48;97265.97;5022880;28;20419;-74
2022/02/22 00:27:40;;;;;;;14.63;9.20;;;;;;;6.77;59.48;97262.00;5023018;28;20076;-74
2022/02/22 00:30:07;;;;;;;14.57;9.60;;;;;;;6.76;59.37;97257.72;5055494;28;20040;-74
2022/02/22 00:32:34;;;;;;;20.13;9.60;;;;;;;6.65;59.47;97274.09;5039528;28;20388;-75
2022/02/22 00:35:00;;;;;;;13.17;9.17;;;;;;;6.71;59.13;97275.97;5023294;28;20054;-75
2022/02/22 00:37:26;;;;;;;15.63;10.20;;;;;;;6.70;59.16;97295.41;5039411;28;20046;-74
2022/02/22 00:39:52;;;;;;;14.10;9.53;;;;;;;6.57;59.22;97268.94;5023015;28;20039;-75
2022/02/22 00:42:18;;;;;;;14.20;9.60;;;;;;;6.57;58.88;97247.84;5022897;28;20093;-73
2022/02/22 00:44:44;;;;;;;14.07;9.37;;;;;;;6.61;59.24;97272.81;5022488;28;20043;-74
2022/02/22 00:47:09;;;;;;;13.13;9.13;;;;;;;6.49;59.48;97284.88;5022227;28;20117;-74
2022/02/22 00:49:35;;;;;;;11.87;8.47;;;;;;;6.76;59.11;97285.94;5055322;28;20400;-75
2022/02/22 00:52:02;;;;;;;20.57;9.83;;;;;;;6.58;59.26;97217.81;5022874;28;20086;-74
2022/02/22 00:54:28;;;;;;;14.43;8.67;;;;;;;6.75;59.11;97279.81;5022447;28;20040;-74
2022/02/22 00:56:54;;;;;;;10.30;8.13;;;;;;;6.59;59.32;97250.28;5039115;28;20065;-74
2022/02/22 00:59:20;;;;;;;14.17;8.63;;;;;;;6.77;58.96;97266.44;5039316;28;20127;-74
2022/02/22 01:01:46;;;;;;;14.13;9.17;;;;;;;6.68;58.99;97235.94;5037520;28;20081;-74
2022/02/22 01:04:12;;;;;;;13.67;9.40;;;;;;;6.77;58.91;97246.19;5037912;28;20078;-74
2022/02/22 01:06:38;;;;;;;14.13;8.40;;;;;;;6.86;58.81;97233.63;5022133;28;20051;-74
2022/02/22 01:09:06;;;;;;;11.57;9.03;;;;;;;6.79;58.70;97227.50;5022519;28;20040;-74
2022/02/22 01:11:33;;;;;;;10.97;7.70;;;;;;;6.93;58.88;97231.88;5055510;28;20101;-75
2022/02/22 01:13:59;;;;;;;12.57;8.20;;;;;;;6.70;58.77;97218.91;5075880;28;20466;-74
2022/02/22 01:16:25;;;;;;;10.27;7.93;;;;;;;6.84;58.69;97241.75;5026777;28;20080;-73
2022/02/22 01:18:51;;;;;;;12.37;7.73;;;;;;;6.75;58.63;97237.63;5043035;28;20153;-73
2022/02/22 01:21:17;;;;;;;9.17;7.37;;;;;;;6.87;59.07;97222.09;5042868;28;20081;-73
2022/02/22 01:23:43;;;;;;;9.37;7.37;;;;;;;6.70;58.75;97213.66;5026239;28;20048;-74
2022/02/22 01:26:09;;;;;;;10.27;7.53;;;;;;;6.75;59.15;97229.72;5026812;28;20133;-75
2022/02/22 01:28:35;;;;;;;11.43;8.40;;;;;;;6.80;59.16;97218.59;5025938;28;20032;-74
2022/02/22 01:31:02;;;;;;;11.37;8.00;;;;;;;6.65;59.57;97212.59;5042184;28;20055;-74
2022/02/22 01:33:28;;;;;;;10.93;7.63;;;;;;;6.83;59.07;97215.56;5026765;28;20553;-73
2022/02/22 01:35:54;;;;;;;10.00;7.63;;;;;;;6.88;59.00;97248.28;5059003;28;20044;-74
2022/02/22 01:38:20;;;;;;;10.13;8.00;;;;;;;6.97;58.99;97227.00;5040974;28;20876;-75
2022/02/22 01:40:46;;;;;;;12.57;8.00;;;;;;;7.02;58.85;97235.16;5040582;28;20129;-74
2022/02/22 01:43:11;;;;;;;11.77;8.60;;;;;;;6.76;58.86;97212.88;5041252;28;20058;-74
2022/02/22 01:45:38;;;;;;;10.87;8.27;;;;;;;6.89;59.00;97220.88;5040657;28;20040;-74
2022/02/22 01:48:04;;;;;;;11.60;7.57;;;;;;;7.00;58.75;97243.28;5024590;28;20582;-75
2022/02/22 01:50:30;;;;;;;13.17;7.97;;;;;;;7.12;58.89;97235.63;5024896;28;20056;-74
2022/02/22 01:52:57;;;;;;;10.50;7.90;;;;;;;6.86;58.81;97208.09;5041938;28;20044;-74
2022/02/22 01:55:23;;;;;;;10.63;8.23;;;;;;;7.18;58.47;97229.59;5041798;28;20036;-74
2022/02/22 01:57:49;;;;;;;10.27;7.33;;;;;;;7.07;58.27;97232.75;5058716;28;20036;-75
2022/02/22 02:00:15;;;;;;;12.57;8.30;;;;;;;7.16;58.70;97224.50;5059508;28;20105;-75
2022/02/22 02:02:41;;;;;;;9.83;8.13;;;;;;;7.00;58.43;97219.53;5025756;28;20044;-74
2022/02/22 02:05:08;;;;;;;9.20;6.90;;;;;;;7.15;58.44;97216.78;5025593;28;20101;-74
2022/02/22 02:07:34;;;;;;;10.63;7.50;;;;;;;7.07;58.60;97215.13;5042076;28;20113;-74
2022/02/22 02:10:00;;;;;;;10.87;7.60;;;;;;;7.07;58.30;97222.22;5041993;28;20043;-74
2022/02/22 02:12:26;;;;;;;10.50;7.40;;;;;;;7.08;58.36;97213.28;5041699;28;20040;-75
2022/02/22 02:14:52;;;;;;;10.50;7.27;;;;;;;7.06;58.56;97217.94;5042041;28;20044;-74
2022/02/22 02:17:17;;;;;;;10.40;7.00;;;;;;;7.02;58.57;97214.06;5025953;28;20032;-73
2022/02/22 02:19:43;;;;;;;9.83;6.67;;;;;;;7.11;58.69;97211.06;5042098;28;20047;-75
2022/02/22 02:22:10;;;;;;;10.60;7.33;;;;;;;7.24;58.23;97212.97;5042094;28;20055;-75
2022/02/22 02:24:36;;;;;;;11.67;7.20;;;;;;;7.06;58.38;97216.09;5040793;28;20044;-74
2022/02/22 02:27:02;;;;;;;8.93;6.87;;;;;;;7.11;58.61;97211.06;5041607;28;20051;-75
2022/02/22 02:29:28;;;;;;;9.13;6.97;;;;;;;7.08;58.47;97214.09;5058109;28;20105;-74
2022/02/22 02:31:56;;;;;;;10.27;6.97;;;;;;;7.29;58.77;97218.47;5074806;28;20491;-74
2022/02/22 02:34:24;;;;;;;10.23;7.53;;;;;;;7.32;58.55;97218.09;5058133;28;20155;-73
2022/02/22 02:36:50;;;;;;;10.50;7.63;;;;;;;7.11;58.76;97207.59;5058001;28;20044;-73
2022/02/22 02:39:16;;;;;;;11.23;7.73;;;;;;;7.17;58.75;97210.28;5058055;28;20085;-73
2022/02/22 02:41:44;;;;;;;8.70;7.23;;;;;;;7.26;58.69;97227.59;5074920;28;20043;-73
2022/02/22 02:44:15;;;;;;;9.07;6.77;;;;;;;7.24;58.78;97208.50;5074625;28;20044;-73
2022/02/22 02:46:41;;;;;;;9.23;6.75;;;;;;;7.15;58.80;97187.75;5058011;28;20044;-73
2022/02/22 02:49:08;;;;;;;14.23;7.10;;;;;;;7.43;58.41;97204.28;5092455;28;20484;-73
2022/02/22 02:51:35;;;;;;;8.93;6.33;;;;;;;7.43;58.11;97189.28;5074690;28;20101;-74
2022/02/22 02:54:02;;;;;;;9.40;6.67;;;;;;;7.40;58.33;97192.31;5024868;28;20411;-73
2022/02/22 02:56:28;;;;;;;9.10;6.80;;;;;;;7.27;58.06;97187.00;5041137;28;20407;-75
2022/02/22 02:58:58;;;;;;;11.23;6.53;;;;;;;7.44;58.55;97206.75;5041033;28;20051;-75
2022/02/22 03:01:26;;;;;;;9.27;6.80;;;;;;;7.45;58.45;97210.19;5057961;28;20058;-75
2022/02/22 03:03:52;;;;;;;11.77;7.40;;;;;;;7.37;58.23;97199.81;5073816;28;20055;-76
2022/02/22 03:06:18;;;;;;;11.10;7.30;;;;;;;7.22;58.51;97215.78;5024509;28;20091;-74
2022/02/22 03:08:45;;;;;;;9.90;7.97;;;;;;;7.18;58.52;97198.69;5025666;28;20039;-75
2022/02/22 03:11:11;;;;;;;11.43;7.83;;;;;;;6.91;58.63;97131.00;5041302;28;20154;-76
2022/02/22 03:13:38;;;;;;;9.77;7.13;;;;;;;7.41;58.52;97195.78;5024610;28;20040;-75
2022/02/22 03:16:05;;;;;;;10.10;7.00;;;;;;;7.20;58.45;97164.19;5040908;28;20051;-75
2022/02/22 03:18:31;;;;;;;11.63;7.60;;;;;;;7.29;58.93;97176.25;5024307;28;20064;-74
2022/02/22 03:20:58;;;;;;;11.90;7.53;;;;;;;7.30;59.04;97194.53;5057410;28;20423;-74
2022/02/22 03:23:24;;;;;;;13.07;7.80;;;;;;;7.19;58.72;97183.69;5024045;28;20109;-75
2022/02/22 03:25:50;;;;;;;10.00;8.00;;;;;;;7.35;58.65;97201.84;5041150;28;20044;-75
2022/02/22 03:28:17;;;;;;;12.57;8.63;;;;;;;7.29;58.97;97178.88;5023968;28;20044;-74
2022/02/22 03:30:43;;;;;;;12.10;7.70;;;;;;;7.30;58.75;97186.59;5040363;28;20251;-74
2022/02/22 03:33:10;;;;;;;12.63;8.33;;;;;;;7.19;58.96;97170.50;5023424;28;20568;-75
2022/02/22 03:35:43;;;;;;;16.60;8.37;;;;;;;7.33;59.07;97191.50;5023667;28;20047;-74
2022/02/22 03:38:09;;;;;;;11.57;8.33;;;;;;;7.29;59.08;97187.59;5039820;28;20043;-75
2022/02/22 03:40:35;;;;;;;11.80;7.57;;;;;;;7.17;59.02;97186.53;5040006;28;20075;-75
2022/02/22 03:43:01;;;;;;;13.17;8.03;;;;;;;7.15;58.70;97148.94;5024443;28;20044;-76
2022/02/22 03:45:27;;;;;;;14.27;8.97;;;;;;;7.38;58.98;97190.91;5056759;28;21024;-75
2022/02/22 03:47:55;;;;;;;11.47;8.20;;;;;;;7.20;58.99;97167.66;5040275;28;20036;-75
2022/02/22 03:50:21;;;;;;;13.43;9.27;;;;;;;7.36;58.89;97171.78;5056534;28;20504;-75
2022/02/22 03:52:47;;;;;;;14.73;9.43;;;;;;;7.36;58.79;97154.13;5039771;28;20044;-74
2022/02/22 03:55:14;;;;;;;13.40;8.57;;;;;;;7.46;58.95;97195.97;5039618;28;20417;-73
2022/02/22 03:57:40;;;;;;;18.07;9.60;;;;;;;7.27;59.01;97170.34;5023133;28;20492;-75
2022/02/22 04:00:10;;;;;;;15.43;8.30;;;;;;;7.52;58.78;97164.31;5024091;28;20091;-75
2022/02/22 04:02:36;;;;;;;15.13;8.67;;;;;;;7.40;59.16;97197.59;5023643;28;20457;-76
2022/02/22 04:05:05;;;;;;;16.25;8.65;;;;;;;7.52;58.92;97190.72;5023235;28;20139;-77
2022/02/22 04:07:35;;;;;;;15.03;9.57;;;;;;;7.60;58.68;97185.28;5039419;28;20083;-76
2022/02/22 04:10:05;;;;;;;14.53;8.87;;;;;;;7.42;58.97;97168.34;5039811;28;20079;-77
2022/02/22 04:12:31;;;;;;;13.47;8.47;;;;;;;7.34;59.43;97201.03;5023456;28;20139;-77
2022/02/22 04:14:57;;;;;;;14.67;9.93;;;;;;;7.09;59.67;97164.78;5039276;28;20043;-74
2022/02/22 04:17:23;;;;;;;18.77;10.87;;;;;;;7.38;59.35;97172.41;5023398;28;20036;-75
2022/02/22 04:19:49;;;;;;;18.07;10.97;;;;;;;7.29;59.62;97184.94;5022962;28;20048;-74
2022/02/22 04:22:20;;;;;;;18.40;10.57;;;;;;;7.51;59.47;97157.41;5022949;28;20108;-74
2022/02/22 04:24:46;;;;;;;19.30;11.15;;;;;;;7.32;59.43;97158.16;5022752;28;20046;-74
2022/02/22 04:27:12;;;;;;;22.30;12.03;;;;;;;7.61;59.23;97204.59;5039075;28;20048;-75
2022/02/22 04:29:39;;;;;;;24.70;12.07;;;;;;;7.46;59.27;97180.97;5022965;28;20139;-73
2022/02/22 04:32:05;;;;;;;22.10;12.77;;;;;;;7.63;59.37;97199.91;5055918;28;20052;-74
2022/02/22 04:34:31;;;;;;;22.93;12.20;;;;;;;7.38;59.43;97146.00;5022811;28;20048;-74
2022/02/22 04:36:57;;;;;;;25.83;13.67;;;;;;;7.63;59.40;97184.03;5039132;28;20142;-74
2022/02/22 04:39:23;;;;;;;26.07;14.07;;;;;;;7.50;59.52;97179.56;5039075;28;20127;-75
2022/02/22 04:41:52;;;;;;;30.10;14.53;;;;;;;7.55;59.73;97173.69;5022639;28;20048;-76
2022/02/22 04:44:19;;;;;;;32.17;14.80;;;;;;;7.59;59.65;97199.50;5023038;28;20142;-74
2022/02/22 04:46:45;;;;;;;30.07;14.27;;;;;;;7.65;59.93;97189.97;5021924;28;20542;-74
2022/02/22 04:49:12;;;;;;;30.77;13.93;;;;;;;7.61;60.00;97188.75;5047278;28;20039;-75
2022/02/22 04:51:40;;;;;;;34.67;14.60;;;;;;;7.66;60.22;97192.41;5066245;28;20047;-74
2022/02/22 04:54:06;;;;;;;42.07;16.37;;;;;;;7.62;60.09;97196.47;5031040;28;20069;-74
2022/02/22 04:56:32;;;;;;;36.57;16.13;;;;;;;7.48;61.01;97193.97;5048356;28;20066;-73
2022/02/22 04:58:58;;;;;;;33.15;14.85;;;;;;;7.67;61.15;97198.50;5048165;28;20038;-73
2022/02/22 05:01:25;;;;;;;32.90;13.87;;;;;;;7.54;61.14;97209.84;5035884;28;20062;-75
2022/02/22 05:03:51;;;;;;;25.77;14.07;;;;;;;7.50;61.82;97208.63;5086537;28;20558;-74
2022/02/22 05:06:17;;;;;;;31.98;15.45;;;;;;;7.48;61.70;97210.63;5069619;28;20143;-73
2022/02/22 05:08:43;;;;;;;29.57;15.27;;;;;;;7.52;61.75;97192.56;5070772;28;20122;-74
2022/02/22 05:11:09;;;;;;;24.37;12.30;;;;;;;7.65;61.11;97209.28;5036914;28;20125;-73
2022/02/22 05:13:35;;;;;;;21.60;10.67;;;;;;;7.59;60.99;97222.44;5069627;28;20069;-74
2022/02/22 05:16:02;;;;;;;19.63;10.45;;;;;;;7.79;60.63;97203.00;5037017;28;20040;-74
2022/02/22 05:18:28;;;;;;;22.27;10.73;;;;;;;7.69;61.19;97204.38;5060176;28;20139;-74
2022/02/22 05:20:54;;;;;;;20.93;10.67;;;;;;;7.62;61.20;97214.13;5090282;28;20047;-74
2022/02/22 05:23:21;;;;;;;15.52;8.32;;;;;;;7.70;60.67;97224.53;5073475;28;20109;-74
2022/02/22 05:25:47;;;;;;;13.07;7.43;;;;;;;7.68;60.80;97222.06;5057610;28;20134;-74
2022/02/22 05:28:13;;;;;;;14.60;8.53;;;;;;;7.81;60.48;97200.97;5056687;28;20145;-74
2022/02/22 05:30:40;;;;;;;10.05;7.00;;;;;;;7.67;60.12;97220.44;5048536;28;20410;-74
2022/02/22 05:33:06;;;;;;;11.05;7.30;;;;;;;7.83;60.56;97213.97;5055897;28;20417;-74
2022/02/22 05:35:31;;;;;;;18.20;8.65;;;;;;;7.90;60.37;97214.81;5040022;28;20451;-76
2022/02/22 05:37:58;;;;;;;11.10;6.97;;;;;;;7.78;60.29;97216.44;5041618;28;20429;-75
2022/02/22 05:40:24;;;;;;;17.02;8.02;;;;;;;7.88;60.20;97216.84;5073660;28;20052;-75
2022/02/22 05:42:50;;;;;;;12.02;7.30;;;;;;;8.02;59.56;97223.78;5057860;28;20048;-74
2022/02/22 05:45:16;;;;;;;12.48;7.30;;;;;;;7.94;59.35;97206.28;5056984;28;20083;-74
2022/02/22 05:47:42;;;;;;;10.73;7.60;;;;;;;7.90;59.72;97239.41;5040716;28;20536;-76
2022/02/22 05:50:09;;;;;;;12.20;7.22;;;;;;;7.91;59.95;97213.78;5056804;28;20040;-74
2022/02/22 05:52:35;;;;;;;10.27;7.17;;;;;;;7.77;59.47;97243.84;5108609;28;20086;-74
2022/02/22 05:55:01;;;;;;;11.48;6.78;;;;;;;7.81;59.81;97253.00;5040034;28;20483;-76
2022/02/22 05:57:28;;;;;;;7.88;5.90;;;;;;;7.81;59.76;97248.53;5057189;28;20127;-75
2022/02/22 05:59:53;;;;;;;8.82;5.82;;;;;;;7.70;59.85;97241.19;5059510;28;20050;-76
2022/02/22 06:02:20;;;;;;;12.37;5.80;;;;;;;7.84;59.83;97249.97;5060995;28;20078;-75
2022/02/22 06:04:46;;;;;;;11.27;6.13;;;;;;;7.56;60.66;97236.03;5061442;28;20054;-77
2022/02/22 06:07:12;;;;;;;7.65;5.50;;;;;;;7.81;59.84;97250.38;5074277;28;20430;-74
2022/02/22 06:09:38;;;;;;;10.40;5.70;;;;;;;7.82;59.77;97265.19;5057525;28;20036;-72
2022/02/22 06:12:06;;;;;;;11.45;5.78;;;;;;;7.96;59.50;97277.44;5039162;28;20085;-74
2022/02/22 06:14:46;;;;;;;9.47;5.63;;;;;;;7.61;59.55;97183.47;5042080;28;20052;-76
2022/02/22 06:17:12;;;;;;;9.15;5.75;;;;;;;7.73;59.33;97269.03;5025426;28;20456;-74
2022/02/22 06:19:38;;;;;;;8.13;5.45;;;;;;;7.61;60.25;97276.69;5074670;28;20062;-75
2022/02/22 06:22:07;;;;;;;8.52;5.72;;;;;;;7.79;59.78;97268.25;5040659;28;20059;-74
2022/02/22 06:24:33;;;;;;;10.70;5.80;;;;;;;7.89;59.62;97277.41;5040651;28;20669;-77
2022/02/22 06:27:53;;;;;;;6.32;4.47;;;;;;;8.05;58.66;97268.31;5040530;28;20553;-74
2022/02/22 06:30:21;;;;;;;6.60;4.03;;;;;;;7.88;59.04;97274.97;5068378;28;20067;-74
2022/02/22 06:32:47;;;;;;;5.88;4.13;;;;;;;7.62;59.03;97293.38;5056778;28;20051;-77
2022/02/22 06:35:14;;;;;;;6.18;4.25;;;;;;;7.80;59.14;97304.19;5057828;28;20036;-77
2022/02/22 06:37:40;;;;;;;8.48;4.13;;;;;;;7.80;58.95;97301.56;5090936;28;20146;-80
2022/02/22 06:40:07;;;;;;;6.45;3.53;;;;;;;7.89;58.87;97311.78;5040328;28;20582;-77
2022/02/22 06:42:34;;;;;;;4.15;2.72;;;;;;;7.45;60.67;97329.03;5039138;28;20047;-75
2022/02/22 06:45:00;;;;;;;5.47;3.57;;;;;;;7.70;59.38;97316.97;5068810;28;20729;-74
2022/02/22 06:47:26;;;;;;;6.95;3.42;;;;;;;7.16;60.12;97335.34;5033722;28;20048;-74
2022/02/22 06:49:52;;;;;;;4.87;3.60;;;;;;;7.59;59.48;97351.88;5068633;28;20513;-74
2022/02/22 06:52:18;;;;;;;3.15;2.80;;;;;;;7.75;58.95;97339.13;5034297;28;20093;-74
2022/02/22 06:54:47;;;;;;;4.63;2.10;;;;;;;7.90;58.25;97341.66;5052664;28;20112;-74
2022/02/22 06:57:13;;;;;;;4.28;2.75;;;;;;;7.33;59.22;97344.59;5086715;28;20052;-75
2022/02/22 06:59:39;;;;;;;5.65;2.60;;;;;;;7.45;59.01;97350.16;5070814;28;20135;-74
2022/02/22 07:02:05;;;;;;;5.13;2.67;;;;;;;7.44;58.79;97345.88;5055989;28;20048;-74
2022/02/22 07:04:32;;;;;;;4.00;2.47;;;;;;;7.62;58.78;97347.00;5056791;28;20047;-74
2022/02/22 07:06:59;;;;;;;3.87;2.57;;;;;;;7.56;58.53;97334.59;5041751;28;20412;-75
2022/02/22 07:09:25;;;;;;;4.15;2.50;;;;;;;8.06;58.12;97334.19;5070460;28;20144;-75
2022/02/22 07:11:51;;;;;;;5.33;2.70;;;;;;;8.24;57.63;97323.13;5052709;28;20128;-75
2022/02/22 07:14:17;;;;;;;3.88;2.80;;;;;;;8.50;57.24;97334.53;5020043;28;20499;-74
2022/02/22 07:16:43;;;;;;;3.22;2.38;;;;;;;8.59;56.46;97328.03;5020171;28;20072;-75
2022/02/22 07:19:09;;;;;;;4.13;2.38;;;;;;;8.51;56.83;97346.78;5019942;28;20523;-75
2022/02/22 07:21:35;;;;;;;3.88;2.58;;;;;;;8.12;56.78;97351.06;5019996;28;20048;-75
2022/02/22 07:24:01;;;;;;;3.08;2.40;;;;;;;8.35;57.05;97335.72;5036187;28;20554;-75
2022/02/22 07:26:27;;;;;;;5.63;2.05;;;;;;;8.40;56.57;97351.81;5053672;28;20044;-75
2022/02/22 07:28:53;;;;;;;3.28;2.13;;;;;;;8.56;55.58;97360.19;5052890;28;20041;-74
2022/02/22 07:31:19;;;;;;;2.53;2.10;;;;;;;8.94;55.30;97367.56;5035723;28;20052;-75
2022/02/22 07:33:44;;;;;;;3.13;2.20;;;;;;;8.56;55.05;97378.69;5019406;28;20036;-74
2022/02/22 07:36:11;;;;;;;3.78;2.00;;;;;;;8.94;55.13;97375.50;5019145;28;20041;-74
2022/02/22 07:38:37;;;;;;;2.50;2.30;;;;;;;9.40;54.94;97378.97;5035664;28;20081;-77
2022/02/22 07:41:03;;;;;;;2.40;1.77;;;;;;;9.37;53.72;97396.09;5019634;28;20048;-76
2022/02/22 07:43:29;;;;;;;3.75;2.00;;;;;;;9.84;53.11;97392.38;5035963;28;20097;-75
2022/02/22 07:45:55;;;;;;;4.35;2.15;;;;;;;10.06;52.21;97385.75;5036400;28;20048;-78
2022/02/22 07:48:21;;;;;;;2.67;1.30;;;;;;;10.55;52.03;97375.38;5052447;28;20040;-76
2022/02/22 07:50:47;;;;;;;1.60;1.50;;;;;;;10.55;50.90;97391.28;5019278;28;20048;-76
2022/02/22 07:53:13;;;;;;;3.58;1.50;;;;;;;10.32;51.04;97401.59;5019231;28;20504;-78
2022/02/22 07:55:39;;;;;;;1.70;1.60;;;;;;;10.19;51.08;97391.84;5052311;28;20044;-76
2022/02/22 07:58:05;;;;;;;3.45;2.28;;;;;;;9.78;51.58;97393.16;5051984;28;20131;-76
2022/02/22 08:00:31;;;;;;;2.25;1.23;;;;;;;9.26;51.74;97425.84;5035348;28;20486;-75
2022/02/22 08:02:59;;;;;;;2.30;1.30;;;;;;;9.43;52.65;97413.81;5052840;28;20054;-75
2022/02/22 08:05:25;;;;;;;2.63;1.30;;;;;;;8.99;53.36;97407.50;5035530;28;20443;-77
2022/02/22 08:07:51;;;;;;;1.95;1.58;;;;;;;8.99;53.53;97402.19;5051708;28;20055;-75
2022/02/22 08:10:16;;;;;;;2.65;1.63;;;;;;;9.21;53.12;97420.34;5072321;28;20048;-75
2022/02/22 08:12:42;;;;;;;2.38;1.48;;;;;;;8.75;52.90;97419.44;5037466;28;20093;-77
2022/02/22 08:15:08;;;;;;;1.80;1.38;;;;;;;8.86;53.62;97433.94;5055492;28;20134;-73
2022/02/22 08:17:40;;;;;;;2.15;1.58;;;;;;;8.60;53.90;97405.59;5038635;28;20051;-74
2022/02/22 08:20:06;;;;;;;1.60;1.40;;;;;;;8.63;54.29;97417.59;5071865;28;20046;-73
2022/02/22 08:22:32;;;;;;;19.45;8.73;;;;;;;8.19;53.83;97407.44;5071299;28;20079;-73
2022/02/22 08:24:58;;;;;;;3.92;1.90;;;;;;;8.42;53.83;97405.34;5055088;28;20113;-73
2022/02/22 08:27:24;;;;;;;3.40;1.30;;;;;;;8.77;53.54;97435.13;5038233;28;20039;-73
2022/02/22 08:29:50;;;;;;;2.53;1.70;;;;;;;8.55;53.45;97445.03;5034458;28;20066;-74
2022/02/22 08:32:16;;;;;;;1.30;1.13;;;;;;;8.63;53.51;97434.28;5035235;28;20101;-74
2022/02/22 08:34:42;;;;;;;1.85;1.30;;;;;;;8.46;53.85;97420.59;5035314;28;20148;-74
2022/02/22 08:37:09;;;;;;;1.25;1.15;;;;;;;8.73;53.78;97449.78;5018611;28;20698;-73
2022/02/22 08:39:34;;;;;;;1.95;1.27;;;;;;;8.90;52.19;97449.22;5034657;28;20041;-72
2022/02/22 08:42:06;;;;;;;1.83;1.10;;;;;;;9.04;51.28;97437.63;5018057;28;20522;-71
2022/02/22 08:44:32;;;;;;;2.08;1.35;;;;;;;10.03;50.03;97444.50;5035263;28;20068;-72
2022/02/22 08:46:58;;;;;;;2.53;1.30;;;;;;;10.50;48.89;97448.69;5051173;28;20036;-72
2022/02/22 08:49:24;;;;;;;2.33;1.10;;;;;;;10.26;48.53;97428.97;5034454;28;20170;-75
2022/02/22 08:51:50;;;;;;;2.60;1.33;;;;;;;10.44;48.25;97450.31;5050633;28;20092;-72
2022/02/22 08:54:16;;;;;;;1.55;1.40;;;;;;;11.16;47.44;97452.63;5067797;28;20055;-70
2022/02/22 08:56:41;;;;;;;1.23;1.13;;;;;;;12.03;45.54;97456.00;5034407;28;20041;-70
2022/02/22 08:59:07;;;;;;;1.50;1.40;;;;;;;13.19;42.57;97463.63;5040674;28;20045;-70
2022/02/22 09:01:33;;;;;;;1.42;1.10;;;;;;;14.68;39.81;97482.63;5051056;28;20040;-70
2022/02/22 09:03:59;;;;;;;1.65;1.10;;;;;;;16.07;36.23;97488.94;5017820;28;20416;-71
2022/02/22 09:06:24;;;;;;;1.08;1.00;;;;;;;14.84;36.17;97480.03;5049191;28;20063;-70
2022/02/22 09:08:50;;;;;;;1.77;1.20;;;;;;;15.62;35.96;97498.88;5066498;28;20052;-70
2022/02/22 09:11:16;;;;;;;2.53;0.95;;;;;;;16.85;34.22;97456.53;5064801;28;20044;-69
2022/02/22 09:13:42;;;;;;;1.83;1.10;;;;;;;17.86;31.75;97453.00;5074594;28;20032;-69
2022/02/22 09:16:08;;;;;;;1.58;0.88;;;;;;;19.00;29.54;97454.75;5073744;28;20047;-69
2022/02/22 09:18:34;;;;;;;1.52;1.05;;;;;;;15.64;32.89;97469.22;5075230;28;20180;-69
2022/02/22 09:21:00;;;;;;;1.77;0.90;;;;;;;15.88;34.26;97443.94;5074629;28;20546;-70
2022/02/22 09:23:25;;;;;;;2.30;0.95;;;;;;;15.10;35.38;97449.25;5070293;28;20097;-69
2022/02/22 09:25:51;;;;;;;2.28;0.90;;;;;;;15.85;33.83;97474.66;5067055;28;20076;-69
2022/02/22 09:28:17;;;;;;;1.50;0.90;;;;;;;15.61;33.83;97462.50;5067265;28;20103;-69
2022/02/22 09:30:43;;;;;;;2.75;1.00;;;;;;;15.21;34.89;97459.06;5067120;28;20330;-70
2022/02/22 09:33:09;;;;;;;2.15;1.02;;;;;;;13.79;36.25;97437.66;5067338;28;20047;-70
2022/02/22 09:35:36;;;;;;;3.63;1.20;;;;;;;12.84;38.24;97457.31;5054455;28;20037;-69
2022/02/22 09:38:01;;;;;;;2.15;1.30;;;;;;;12.87;38.95;97464.06;5072426;28;20109;-69
2022/02/22 09:40:28;;;;;;;1.27;1.17;;;;;;;14.19;36.79;97459.91;5037945;28;20127;-68
2022/02/22 09:42:54;;;;;;;1.98;1.20;;;;;;;13.39;36.57;97471.34;5071376;28;20462;-67
2022/02/22 09:45:22;;;;;;;1.40;1.23;;;;;;;12.87;38.60;97459.53;5054049;28;20044;-69
2022/02/22 09:47:48;;;;;;;3.85;1.20;;;;;;;13.07;37.66;97462.75;5061903;28;20135;-68
2022/02/22 09:50:15;;;;;;;2.10;1.15;;;;;;;13.31;37.67;97450.34;5070215;28;20457;-69
2022/02/22 09:52:41;;;;;;;1.23;1.00;;;;;;;14.27;35.90;97458.78;5070671;28;20834;-69
2022/02/22 09:55:08;;;;;;;2.42;1.25;;;;;;;14.29;36.12;97446.00;5070690;28;20408;-68
2022/02/22 09:57:35;;;;;;;2.50;1.13;;;;;;;13.89;36.07;97463.75;5087495;28;20036;-68
2022/02/22 10:00:01;;;;;;;2.50;1.38;;;;;;;13.48;36.92;97436.09;5037244;28;20044;-68
2022/02/22 10:02:37;;;;;;;2.58;1.08;;;;;;;14.83;35.03;97458.88;5054156;28;20047;-68
2022/02/22 10:05:17;;;;;;;3.47;1.20;;;;;;;15.11;33.16;97490.97;5071639;28;20037;-68
2022/02/22 10:07:47;;;;;;;2.97;1.73;;;;;;;15.30;33.59;97483.59;5053487;28;20104;-68
2022/02/22 10:10:14;;;;;;;4.05;1.20;;;;;;;14.85;33.42;97468.28;5071350;28;20041;-68
2022/02/22 10:12:41;;;;;;;2.60;0.95;;;;;;;14.91;33.23;97477.22;5053246;28;20512;-67
2022/02/22 10:15:08;;;;;;;2.38;1.50;;;;;;;17.41;29.67;97463.28;5036676;28;20135;-67
2022/02/22 10:17:41;;;;;;;1.73;1.30;;;;;;;19.26;26.83;97479.84;5036704;28;20089;-67
2022/02/22 10:20:09;;;;;;;2.47;1.15;;;;;;;19.61;25.73;97453.00;5053094;28;20052;-68
2022/02/22 10:22:56;;;;;;;2.00;1.20;;;;;;;19.80;23.77;97510.66;5053657;28;20041;-69
2022/02/22 10:25:25;;;;;;;2.45;1.00;;;;;;;17.89;26.76;97465.91;5036860;28;20044;-70
2022/02/22 10:27:51;;;;;;;1.83;1.02;;;;;;;15.50;29.65;97481.31;5067244;28;20040;-75
2022/02/22 10:30:24;;;;;;;1.52;1.05;;;;;;;16.24;29.17;97467.47;5072561;28;20048;-70
2022/02/22 10:32:50;;;;;;;1.20;0.80;;;;;;;18.12;27.07;97462.84;5073204;28;20047;-69
2022/02/22 10:35:29;;;;;;;2.88;1.20;;;;;;;18.13;25.76;97433.03;5090247;28;20396;-70
2022/02/22 10:37:55;;;;;;;2.28;1.23;;;;;;;17.82;26.94;97449.22;5073325;28;20119;-69
2022/02/22 10:40:29;;;;;;;2.25;1.10;;;;;;;20.33;24.06;97452.72;5056003;28;20193;-72
2022/02/22 10:42:56;;;;;;;2.35;1.30;;;;;;;17.81;26.43;97461.00;5091003;28;20047;-70
2022/02/22 10:45:23;;;;;;;5.70;1.50;;;;;;;17.78;26.74;97440.84;5054900;28;20048;-69
2022/02/22 10:47:49;;;;;;;1.92;1.10;;;;;;;20.05;24.46;97449.50;5056207;28;20135;-70
2022/02/22 10:50:22;;;;;;;2.53;1.20;;;;;;;22.04;21.95;97439.94;5069055;28;20051;-70
2022/02/22 10:52:48;;;;;;;4.05;1.50;;;;;;;22.42;20.99;97457.16;5085353;28;20055;-72
2022/02/22 10:55:14;;;;;;;1.98;1.23;;;;;;;21.70;21.02;97466.94;5088474;28;20047;-70
2022/02/22 10:57:40;;;;;;;2.63;1.40;;;;;;;21.24;21.85;97454.84;5035506;28;20904;-70
2022/02/22 11:00:07;;;;;;;1.80;1.17;;;;;;;21.48;21.51;97476.56;5085528;28;20082;-70
2022/02/22 11:02:34;;;;;;;2.58;1.05;;;;;;;19.96;22.30;97443.03;5070588;28;20048;-70
2022/02/22 11:05:01;;;;;;;1.83;1.20;;;;;;;18.68;24.52;97448.72;5085640;28;20131;-70
2022/02/22 11:07:27;;;;;;;3.13;1.45;;;;;;;17.96;25.03;97428.88;5068670;28;20048;-69
2022/02/22 11:09:53;;;;;;;4.18;1.33;;;;;;;18.70;24.86;97464.56;5052205;28;20041;-70
2022/02/22 11:12:43;;;;;;;2.03;1.23;;;;;;;19.63;23.16;97432.00;5068180;28;20420;-70
2022/02/22 11:15:11;;;;;;;1.67;1.10;;;;;;;21.16;21.86;97443.78;5037872;28;20032;-71
2022/02/22 11:17:49;;;;;;;4.00;1.40;;;;;;;20.47;21.64;97453.75;5089526;28;20124;-71
2022/02/22 11:20:29;;;;;;;2.88;1.30;;;;;;;18.65;23.96;97446.50;5088903;28;20051;-70
2022/02/22 11:22:58;;;;;;;4.18;1.27;;;;;;;19.81;23.05;97448.44;5056031;28;20101;-71
2022/02/22 11:25:32;;;;;;;3.63;1.23;;;;;;;19.44;23.41;97453.25;5072438;28;20101;-72
2022/02/22 11:28:06;;;;;;;2.70;1.17;;;;;;;18.74;24.37;97431.53;5056214;28;20043;-71
2022/02/22 11:30:33;;;;;;;1.50;1.10;;;;;;;19.73;22.55;97467.81;5072766;28;20044;-71
2022/02/22 11:33:00;;;;;;;1.38;1.08;;;;;;;19.42;23.04;97462.69;5072552;28;20126;-70